Time;durP1;ratioP1;P1;durP2;ratioP2;P2;SDS_P1;SDS_P2;PMS_P1;PMS_P2;Temp;Humidity;BMP_temperature;BMP_pressure;BME280_temperature;BME280_humidity;BME280_pressure;Samples;Min_cycle;Max_cycle;Signal;HPM_P1;HPM_P2
2022/08/29 00:00:13;;;;;;;;;2.75;2.25;;;;;22.54;39.01;101089.06;5118274;27;45498;-52
2022/08/29 00:02:38;;;;;;;;;2.80;2.60;;;;;22.73;39.10;101122.84;5099922;27;46562;-51
2022/08/29 00:05:05;;;;;;;;;3.25;2.25;;;;;22.78;39.12;101120.00;5118266;27;45307;-50
2022/08/29 00:07:30;;;;;;;;;2.80;1.80;;;;;22.76;38.82;101119.47;5099538;27;45379;-55
2022/08/29 00:09:56;;;;;;;;;2.00;2.00;;;;;22.75;39.08;101117.81;5118502;27;45748;-52
2022/08/29 00:12:21;;;;;;;;;1.75;1.75;;;;;22.62;38.91;101113.63;5117913;27;46878;-54
2022/08/29 00:14:47;;;;;;;;;1.50;1.50;;;;;22.46;39.03;101087.66;5117911;27;45434;-54
2022/08/29 00:17:12;;;;;;;;;1.75;1.75;;;;;22.60;39.16;101119.53;5099533;27;45361;-52
2022/08/29 00:19:38;;;;;;;;;1.00;1.00;;;;;22.60;39.25;101108.34;5118064;27;45368;-51
2022/08/29 00:22:03;;;;;;;;;4.00;1.75;;;;;22.60;39.33;101115.88;5099508;27;46682;-54
2022/08/29 00:24:29;;;;;;;;;4.00;1.00;;;;;22.38;39.47;101099.41;5117704;27;45324;-53
2022/08/29 00:26:54;;;;;;;;;1.00;1.00;;;;;22.36;39.64;101090.47;5117861;27;45391;-55
2022/08/29 00:29:20;;;;;;;;;1.50;1.25;;;;;22.43;39.66;101114.25;5118397;27;45319;-54
2022/08/29 00:31:45;;;;;;;;;3.75;2.75;;;;;22.45;39.33;101113.94;5117572;27;46722;-55
2022/08/29 00:34:11;;;;;;;;;2.50;2.00;;;;;22.48;39.58;101107.78;5117842;27;45411;-54
2022/08/29 00:36:36;;;;;;;;;1.75;1.50;;;;;22.41;39.63;101105.28;5117661;27;45375;-54
2022/08/29 00:39:02;;;;;;;;;2.00;2.00;;;;;22.28;39.56;101075.13;5118283;27;45578;-52
2022/08/29 00:41:28;;;;;;;;;2.40;2.40;;;;;22.33;39.77;101101.13;5117585;27;46845;-55
2022/08/29 00:43:53;;;;;;;;;1.00;1.00;;;;;22.15;39.74;101093.31;5117317;27;45344;-54
2022/08/29 00:46:40;;;;;;;;;2.00;1.00;;;;;22.21;39.81;101100.59;5118001;27;45400;-53
2022/08/29 00:49:37;;;;;;;;;2.20;2.20;;;;;22.26;39.95;101117.34;5118030;27;45343;-53
2022/08/29 00:52:33;;;;;;;;;7.00;1.40;;;;;22.22;40.04;101107.84;5095718;27;46136;-54
2022/08/29 00:55:00;;;;;;;;;1.80;1.00;;;;;22.13;39.95;101098.34;5088456;27;45905;-54
2022/08/29 00:57:26;;;;;;;;;1.20;1.20;;;;;22.15;40.00;101096.13;5059120;27;45420;-54
2022/08/29 00:59:51;;;;;;;;;2.00;2.00;;;;;22.22;39.61;101119.03;5062104;27;45401;-56
2022/08/29 01:02:17;;;;;;;;;2.50;2.50;;;;;22.21;40.13;101123.78;5097349;27;46765;-53
2022/08/29 01:04:42;;;;;;;;;2.75;1.50;;;;;22.32;39.90;101124.59;5078670;27;45383;-52
2022/08/29 01:07:09;;;;;;;;;2.00;2.00;;;;;22.34;39.66;101125.16;5096854;27;45321;-53
2022/08/29 01:09:35;;;;;;;;;1.00;0.60;;;;;22.28;39.84;101106.72;5078781;27;45387;-54
2022/08/29 01:12:15;;;;;;;;;0.20;0.20;;;;;22.36;39.64;101101.66;5061434;27;45857;-54
2022/08/29 01:14:46;;;;;;;;;2.00;2.00;;;;;22.44;39.73;101115.06;5080792;27;45461;-53
2022/08/29 01:17:12;;;;;;;;;2.00;2.00;;;;;22.42;39.55;101104.16;5096789;27;45314;-52
2022/08/29 01:20:01;;;;;;;;;1.75;1.75;;;;;22.41;39.63;101107.25;5061776;27;45299;-56
2022/08/29 01:22:33;;;;;;;;;1.00;1.00;;;;;22.32;39.85;101107.00;5077548;27;47786;-53
2022/08/29 01:25:00;;;;;;;;;3.20;1.40;;;;;22.29;39.77;101101.94;5096373;27;45515;-52
2022/08/29 01:27:27;;;;;;;;;2.80;1.40;;;;;22.38;39.80;101105.00;5096425;27;45508;-54
2022/08/29 01:29:53;;;;;;;;;1.20;1.20;;;;;22.13;39.73;101067.59;5061864;27;45651;-53
2022/08/29 01:32:18;;;;;;;;;3.50;2.25;;;;;22.09;39.94;101084.09;5096259;27;45902;-50
2022/08/29 01:34:44;;;;;;;;;1.00;1.00;;;;;22.23;40.00;101100.28;5061111;27;45226;-53
2022/08/29 01:37:11;;;;;;;;;1.20;1.20;;;;;22.23;39.98;101101.13;5078012;27;45674;-52
2022/08/29 01:39:40;;;;;;;;;2.00;2.00;;;;;22.12;39.90;101080.75;5061726;27;45168;-55
2022/08/29 01:42:16;;;;;;;;;2.00;2.00;;;;;22.26;39.99;101103.38;5095927;27;46782;-55
2022/08/29 01:44:47;;;;;;;;;1.40;1.40;;;;;22.18;39.87;101101.13;5078331;27;45477;-54
2022/08/29 01:47:12;;;;;;;;;3.00;1.20;;;;;22.14;40.01;101108.44;5065063;27;45329;-54
2022/08/29 01:49:38;;;;;;;;;2.00;1.00;;;;;22.15;40.25;101098.91;5116838;27;45570;-52
2022/08/29 01:52:04;;;;;;;;;3.00;3.00;;;;;21.97;40.25;101078.00;5116518;27;45622;-51
2022/08/29 01:54:30;;;;;;;;;1.80;1.80;;;;;21.85;40.16;101070.72;5116843;27;45395;-51
2022/08/29 01:56:55;;;;;;;;;2.75;1.00;;;;;21.85;40.29;101055.91;5098850;27;45329;-54
2022/08/29 01:59:24;;;;;;;;;2.00;2.00;;;;;22.06;40.12;101104.25;5117087;27;45487;-53
2022/08/29 02:01:58;;;;;;;;;2.00;2.00;;;;;21.96;40.17;101079.09;5116289;27;45546;-53
2022/08/29 02:04:24;;;;;;;;;2.00;2.00;;;;;21.89;40.45;101076.59;5082096;27;45319;-55
2022/08/29 02:06:49;;;;;;;;;2.00;2.00;;;;;21.89;40.45;101077.41;5116728;27;45316;-55
2022/08/29 02:09:15;;;;;;;;;1.00;1.00;;;;;21.94;39.87;101073.81;5118408;27;45428;-54
2022/08/29 02:11:40;;;;;;;;;2.00;2.00;;;;;22.01;39.94;101088.31;5120175;27;45568;-56
2022/08/29 02:14:06;;;;;;;;;2.75;1.00;;;;;22.00;40.04;101089.44;5119900;27;45436;-54
2022/08/29 02:16:31;;;;;;;;;3.00;2.00;;;;;21.88;40.20;101072.13;5102011;27;45317;-52
2022/08/29 02:18:57;;;;;;;;;3.25;2.00;;;;;21.86;40.40;101074.34;5102015;27;45548;-54
2022/08/29 02:21:24;;;;;;;;;2.75;1.75;;;;;21.96;40.15;101093.06;5119688;27;46095;-54
2022/08/29 02:23:49;;;;;;;;;1.80;1.80;;;;;21.97;40.49;101092.78;5119287;27;45490;-51
2022/08/29 02:26:16;;;;;;;;;0.00;0.00;;;;;21.83;40.45;101066.53;5084569;27;45409;-53
2022/08/29 02:28:41;;;;;;;;;1.80;1.80;;;;;21.72;40.63;101048.94;5120139;27;45242;-54
2022/08/29 02:31:07;;;;;;;;;1.00;1.00;;;;;21.87;40.63;101088.03;5101410;27;46490;-53
2022/08/29 02:33:34;;;;;;;;;1.60;1.00;;;;;21.57;40.72;101050.59;5101149;27;45325;-53
2022/08/29 02:35:59;;;;;;;;;2.00;2.00;;;;;21.77;40.73;101088.06;5119922;27;45792;-52
2022/08/29 02:38:25;;;;;;;;;3.75;3.00;;;;;21.72;40.94;101079.69;5119475;27;45297;-54
2022/08/29 02:40:51;;;;;;;;;1.20;1.20;;;;;21.73;40.93;101081.34;5119494;27;45563;-55
2022/08/29 02:43:18;;;;;;;;;1.75;1.75;;;;;21.70;40.86;101088.31;5119535;27;45260;-53
2022/08/29 02:45:44;;;;;;;;;2.20;1.00;;;;;21.61;41.16;101084.41;5101373;27;45416;-51
2022/08/29 02:48:13;;;;;;;;;1.40;1.40;;;;;21.38;41.28;101037.19;5084245;27;45361;-53
2022/08/29 02:50:42;;;;;;;;;1.00;1.00;;;;;21.50;41.29;101062.03;5101194;27;45591;-52
2022/08/29 02:53:08;;;;;;;;;2.20;1.60;;;;;21.34;41.30;101068.72;5118961;27;45320;-52
2022/08/29 02:55:34;;;;;;;;;1.00;0.75;;;;;21.50;41.55;101083.56;5119442;27;45359;-51
2022/08/29 02:58:00;;;;;;;;;0.00;0.00;;;;;21.35;41.55;101068.44;5119460;27;45388;-53
2022/08/29 03:00:26;;;;;;;;;1.00;1.00;;;;;21.47;41.50;101075.72;5118601;27;45550;-50
2022/08/29 03:02:52;;;;;;;;;1.80;1.00;;;;;21.49;41.60;101082.69;5119049;27;45467;-51
2022/08/29 03:05:19;;;;;;;;;4.80;2.80;;;;;21.37;41.79;101059.78;5119221;27;45388;-54
2022/08/29 03:07:46;;;;;;;;;2.00;2.00;;;;;21.39;41.79;101060.34;5119089;27;45409;-54
2022/08/29 03:10:11;;;;;;;;;4.00;2.00;;;;;21.53;41.65;101077.41;5118559;27;45824;-52
2022/08/29 03:12:37;;;;;;;;;1.50;1.50;;;;;21.45;41.45;101053.66;5119126;27;45783;-52
2022/08/29 03:15:03;;;;;;;;;3.50;1.25;;;;;21.47;41.36;101064.53;5119017;27;45312;-51
2022/08/29 03:17:29;;;;;;;;;1.00;1.00;;;;;21.49;41.67;101077.13;5119604;27;45923;-54
2022/08/29 03:19:56;;;;;;;;;2.60;1.60;;;;;21.46;41.49;101072.06;5118418;27;45854;-51
2022/08/29 03:22:22;;;;;;;;;2.00;1.20;;;;;21.50;41.77;101073.19;5099946;27;45514;-54
2022/08/29 03:24:47;;;;;;;;;1.75;1.00;;;;;21.50;41.68;101066.81;5118569;27;45532;-54
2022/08/29 03:27:13;;;;;;;;;1.00;1.00;;;;;21.44;41.65;101073.50;5119245;27;45209;-50
2022/08/29 03:29:38;;;;;;;;;0.00;0.00;;;;;21.40;41.76;101064.84;5118661;27;46960;-52
2022/08/29 03:32:04;;;;;;;;;2.25;1.00;;;;;21.42;41.98;101072.91;5119046;27;45191;-53
2022/08/29 03:34:30;;;;;;;;;1.00;1.00;;;;;21.33;41.93;101070.69;5100432;27;45362;-54
2022/08/29 03:36:55;;;;;;;;;2.25;1.00;;;;;21.19;42.04;101058.38;5119026;27;45344;-53
2022/08/29 03:39:21;;;;;;;;;1.50;1.50;;;;;21.22;42.34;101066.19;5118566;27;45632;-54
2022/08/29 03:41:46;;;;;;;;;2.50;1.00;;;;;21.33;42.24;101065.09;5118405;27;45307;-54
2022/08/29 03:44:12;;;;;;;;;3.00;0.25;;;;;21.24;41.98;101052.81;5118838;27;45273;-54
2022/08/29 03:46:38;;;;;;;;;2.00;1.00;;;;;21.15;41.95;101040.50;5118659;27;45479;-52
2022/08/29 03:49:05;;;;;;;;;2.00;2.00;;;;;21.33;41.94;101069.81;5099873;27;45675;-54
2022/08/29 03:51:32;;;;;;;;;1.60;1.60;;;;;21.31;42.19;101067.34;5118410;27;45362;-54
2022/08/29 03:53:57;;;;;;;;;2.00;2.00;;;;;21.21;42.28;101047.75;5118339;27;45344;-54
2022/08/29 03:56:23;;;;;;;;;1.50;1.00;;;;;21.01;42.59;101037.41;5118575;27;45499;-53
2022/08/29 03:58:49;;;;;;;;;3.40;2.60;;;;;21.18;42.88;101070.66;5099798;27;45631;-52
2022/08/29 04:01:16;;;;;;;;;2.80;2.80;;;;;21.17;42.47;101066.19;5118285;27;45373;-54
2022/08/29 04:03:42;;;;;;;;;1.80;1.80;;;;;21.19;42.42;101073.16;5117428;27;45355;-56
2022/08/29 04:06:07;;;;;;;;;4.00;2.00;;;;;21.07;42.41;101053.06;5118369;27;45313;-55
2022/08/29 04:08:33;;;;;;;;;2.00;2.00;;;;;21.03;42.67;101079.81;5117992;27;45590;-55
2022/08/29 04:10:58;;;;;;;;;1.00;1.00;;;;;20.85;42.95;101068.91;5118311;27;45379;-56
2022/08/29 04:13:24;;;;;;;;;2.00;2.00;;;;;20.75;43.13;101052.09;5099236;27;45346;-55
2022/08/29 04:15:50;;;;;;;;;2.40;2.40;;;;;20.90;42.72;101062.50;5118359;27;45472;-55
2022/08/29 04:18:16;;;;;;;;;2.00;1.00;;;;;21.10;42.78;101085.97;5099450;27;45571;-52
2022/08/29 04:20:43;;;;;;;;;1.25;1.25;;;;;21.04;43.00;101084.28;5099024;27;45289;-51
2022/08/29 04:23:11;;;;;;;;;2.20;1.20;;;;;20.89;42.78;101059.97;5117845;27;45238;-53
2022/08/29 04:25:36;;;;;;;;;4.00;2.60;;;;;20.92;42.91;101057.47;5117559;27;45313;-54
2022/08/29 04:28:03;;;;;;;;;2.50;2.50;;;;;20.87;42.89;101057.47;5117537;27;45732;-53
2022/08/29 04:30:29;;;;;;;;;2.20;1.80;;;;;20.93;42.75;101073.13;5117621;27;45387;-56
2022/08/29 04:32:55;;;;;;;;;1.50;1.50;;;;;20.88;43.09;101067.50;5117002;27;45353;-51
2022/08/29 04:35:20;;;;;;;;;2.25;2.25;;;;;20.92;43.05;101079.78;5099609;27;45985;-55
2022/08/29 04:37:46;;;;;;;;;1.00;1.00;;;;;20.76;42.95;101053.75;5117374;27;45469;-52
2022/08/29 04:40:14;;;;;;;;;5.00;1.75;;;;;20.89;42.91;101074.75;5116224;27;45874;-53
2022/08/29 04:42:39;;;;;;;;;2.40;2.40;;;;;20.85;42.80;101070.84;5099288;27;45465;-51
2022/08/29 04:45:06;;;;;;;;;1.25;1.00;;;;;20.87;43.08;101082.56;5117541;27;45625;-51
2022/08/29 04:47:34;;;;;;;;;1.80;1.80;;;;;20.72;43.02;101075.78;5099064;27;46024;-54
2022/08/29 04:49:59;;;;;;;;;2.00;2.00;;;;;20.76;43.43;101089.19;5116785;27;45419;-53
2022/08/29 04:52:25;;;;;;;;;3.50;3.50;;;;;20.75;43.63;101093.91;5117170;27;45411;-54
2022/08/29 04:54:50;;;;;;;;;2.25;2.25;;;;;20.70;43.58;101094.72;5099241;27;45338;-52
2022/08/29 04:57:16;;;;;;;;;3.75;1.75;;;;;20.66;43.83;101099.16;5117378;27;46591;-53
2022/08/29 04:59:41;;;;;;;;;0.00;0.00;;;;;20.57;43.55;101067.34;5117157;27;45436;-56
2022/08/29 05:02:07;;;;;;;;;4.75;3.75;;;;;20.72;43.50;101083.31;5117173;27;45371;-53
2022/08/29 05:04:32;;;;;;;;;3.25;3.25;;;;;20.56;43.62;101082.41;5117523;27;45404;-52
2022/08/29 05:06:58;;;;;;;;;2.00;2.00;;;;;20.72;43.51;101106.44;5099164;27;46523;-51
2022/08/29 05:09:23;;;;;;;;;5.25;2.75;;;;;20.73;43.25;101110.09;5117051;27;45336;-52
2022/08/29 05:11:48;;;;;;;;;2.75;2.75;;;;;20.63;43.72;101104.44;5117479;27;45419;-55
2022/08/29 05:14:14;;;;;;;;;3.75;2.75;;;;;20.66;43.60;101110.31;5117497;27;45501;-52
2022/08/29 05:16:40;;;;;;;;;2.25;2.25;;;;;20.55;43.87;101109.44;5098483;27;46136;-55
2022/08/29 05:19:06;;;;;;;;;2.60;1.20;;;;;20.57;43.88;101118.38;5116883;27;45304;-55
2022/08/29 05:21:36;;;;;;;;;2.50;2.25;;;;;20.53;43.80;101113.59;5098792;27;45761;-55
2022/08/29 05:24:08;;;;;;;;;3.00;1.40;;;;;20.56;43.84;101118.66;5116840;27;45328;-53
2022/08/29 05:26:41;;;;;;;;;2.80;2.40;;;;;20.59;43.89;101116.16;5117009;27;46196;-54
2022/08/29 05:29:07;;;;;;;;;3.80;2.80;;;;;20.66;43.71;101121.47;5117037;27;45337;-55
2022/08/29 05:31:35;;;;;;;;;3.00;2.40;;;;;20.53;43.46;101108.88;5117121;27;45174;-50
2022/08/29 05:34:01;;;;;;;;;2.00;2.00;;;;;20.65;43.82;101122.59;5116787;27;45328;-52
2022/08/29 05:36:27;;;;;;;;;3.00;2.60;;;;;20.61;43.53;101113.09;5115220;27;46675;-50
2022/08/29 05:38:53;;;;;;;;;2.00;2.00;;;;;20.52;43.67;101093.25;5098498;27;46032;-53
2022/08/29 05:41:19;;;;;;;;;2.00;2.00;;;;;20.76;43.49;101137.41;5109507;27;45284;-52
2022/08/29 05:43:44;;;;;;;;;4.25;3.00;;;;;20.79;43.44;101127.69;5087772;27;45431;-55
2022/08/29 05:46:10;;;;;;;;;2.00;2.00;;;;;20.81;43.31;101140.25;5101642;27;46531;-52
2022/08/29 05:48:37;;;;;;;;;3.50;3.25;;;;;20.66;43.61;101118.69;5120197;27;45428;-52
2022/08/29 05:51:03;;;;;;;;;4.40;2.60;;;;;20.72;43.60;101133.50;5101764;27;45362;-51
2022/08/29 05:53:28;;;;;;;;;2.00;2.00;;;;;20.62;43.70;101117.56;5102111;27;45658;-52
2022/08/29 05:55:54;;;;;;;;;2.25;2.25;;;;;20.75;43.64;101135.75;5120104;27;46474;-52
2022/08/29 05:58:19;;;;;;;;;3.00;3.00;;;;;20.80;43.38;101143.28;5120131;27;45344;-52
2022/08/29 06:00:45;;;;;;;;;3.25;2.75;;;;;20.84;43.49;101147.25;5119957;27;45412;-51
2022/08/29 06:03:11;;;;;;;;;1.75;1.75;;;;;20.78;43.34;101131.56;5120384;27;45586;-53
2022/08/29 06:05:37;;;;;;;;;2.40;1.80;;;;;20.67;43.47;101117.59;5119885;27;45617;-51
2022/08/29 06:08:03;;;;;;;;;2.80;2.80;;;;;20.69;43.42;101145.19;5119820;27;45316;-52
2022/08/29 06:10:28;;;;;;;;;2.00;1.75;;;;;20.67;43.14;101145.50;5101630;27;45355;-55
2022/08/29 06:12:54;;;;;;;;;3.75;3.00;;;;;20.61;43.52;101121.47;5070842;27;45482;-56
2022/08/29 06:15:19;;;;;;;;;1.25;1.25;;;;;20.78;43.44;101148.31;5115268;27;46815;-58
2022/08/29 06:17:45;;;;;;;;;2.00;2.00;;;;;20.54;43.84;101113.34;5093247;27;45476;-55
2022/08/29 06:20:10;;;;;;;;;3.50;2.00;;;;;20.81;43.79;101142.22;5095054;27;45452;-50
2022/08/29 06:22:36;;;;;;;;;1.75;1.75;;;;;20.82;43.77;101153.06;5094898;27;45486;-56
2022/08/29 06:25:03;;;;;;;;;1.60;1.60;;;;;20.74;43.86;101156.38;5094094;27;46415;-51
2022/08/29 06:27:28;;;;;;;;;2.40;2.40;;;;;20.68;43.64;101155.53;5080277;27;45763;-52
2022/08/29 06:29:54;;;;;;;;;2.00;2.00;;;;;20.80;43.56;101163.66;5103148;27;45526;-56
2022/08/29 06:32:19;;;;;;;;;4.00;2.00;;;;;20.78;43.61;101168.69;5112592;27;45847;-56
2022/08/29 06:34:45;;;;;;;;;2.00;2.00;;;;;20.77;43.35;101168.94;5114928;27;45434;-55
2022/08/29 06:37:10;;;;;;;;;2.25;1.75;;;;;20.79;43.65;101166.72;5114782;27;45780;-56
2022/08/29 06:39:35;;;;;;;;;2.00;1.75;;;;;20.79;43.72;101169.50;5113653;27;45447;-53
2022/08/29 06:42:01;;;;;;;;;2.00;2.00;;;;;20.81;43.77;101159.75;5101606;27;45608;-54
2022/08/29 06:44:29;;;;;;;;;5.00;3.25;;;;;20.62;43.53;101134.31;5098819;27;46393;-54
2022/08/29 06:46:55;;;;;;;;;2.60;2.60;;;;;20.87;43.63;101166.25;5104336;27;45416;-49
2022/08/29 06:49:20;;;;;;;;;3.00;3.00;;;;;20.65;43.22;101122.59;5094272;27;45359;-55
2022/08/29 06:51:51;;;;;;;;;2.50;1.50;;;;;20.92;43.41;101157.06;5076747;27;45801;-52
2022/08/29 06:54:18;;;;;;;;;5.00;3.40;;;;;20.91;43.48;101166.56;5096326;27;45860;-52
2022/08/29 06:56:44;;;;;;;;;6.00;4.00;;;;;20.92;43.17;101157.06;5115134;27;45832;-54
2022/08/29 06:59:10;;;;;;;;;2.00;2.00;;;;;20.91;43.19;101156.22;5079551;27;45785;-53
2022/08/29 07:01:35;;;;;;;;;2.25;2.25;;;;;20.92;43.37;101169.06;5114172;27;45395;-54
2022/08/29 07:04:02;;;;;;;;;8.25;7.00;;;;;20.97;43.51;101171.03;5113209;27;45480;-51
2022/08/29 07:06:27;;;;;;;;;4.40;4.00;;;;;21.02;43.11;101178.59;5102270;27;45395;-52
2022/08/29 07:08:53;;;;;;;;;4.50;3.50;;;;;20.84;43.31;101148.13;5079396;27;45441;-51
2022/08/29 07:11:18;;;;;;;;;8.50;6.00;;;;;21.05;43.41;101170.53;5080526;27;45547;-51
2022/08/29 07:13:44;;;;;;;;;3.00;3.00;;;;;20.93;43.28;101164.31;5079713;27;45369;-50
2022/08/29 07:16:15;;;;;;;;;8.25;4.00;;;;;20.86;43.93;101164.56;5098476;27;45406;-50
2022/08/29 07:18:43;;;;;;;;;8.60;7.20;;;;;20.94;43.66;101177.16;5098524;27;45341;-52
2022/08/29 07:21:10;;;;;;;;;3.20;3.20;;;;;20.91;43.51;101172.13;5098873;27;45488;-51
2022/08/29 07:23:36;;;;;;;;;7.40;5.20;;;;;20.94;43.86;101174.38;5097945;27;45521;-52
2022/08/29 07:26:18;;;;;;;;;6.25;6.25;;;;;20.90;43.57;101165.69;5098672;27;45381;-49
2022/08/29 07:28:48;;;;;;;;;6.20;5.00;;;;;20.96;43.43;101170.19;5098175;27;45368;-54
2022/08/29 07:31:14;;;;;;;;;10.40;10.00;;;;;20.76;43.41;101139.38;5098722;27;45216;-52
2022/08/29 07:33:39;;;;;;;;;5.00;3.75;;;;;21.07;43.74;101173.03;5079875;27;45438;-52
2022/08/29 07:36:05;;;;;;;;;3.25;3.25;;;;;20.95;43.46;101140.63;5098236;27;45236;-55
2022/08/29 07:38:31;;;;;;;;;4.25;4.25;;;;;21.08;43.48;101171.94;5098301;27;45154;-57
2022/08/29 07:41:07;;;;;;;;;5.00;4.20;;;;;21.03;43.50;101166.31;5083003;27;45580;-53
2022/08/29 07:43:32;;;;;;;;;5.00;2.80;;;;;21.17;43.72;101180.63;5115083;27;46438;-52
2022/08/29 07:45:58;;;;;;;;;3.00;3.00;;;;;21.21;43.35;101177.00;5110778;27;45448;-51
2022/08/29 07:48:23;;;;;;;;;8.00;4.75;;;;;21.20;42.68;101169.75;5114002;27;45276;-55
2022/08/29 07:50:49;;;;;;;;;4.50;4.50;;;;;21.23;43.01;101171.13;5105000;27;45366;-57
2022/08/29 07:53:15;;;;;;;;;3.20;3.20;;;;;21.28;43.15;101176.72;5115692;27;45373;-56
2022/08/29 07:55:40;;;;;;;;;5.25;5.25;;;;;21.17;42.75;101153.53;5116752;27;45464;-56
2022/08/29 07:58:06;;;;;;;;;3.25;3.25;;;;;21.23;43.02;101151.59;5116892;27;45359;-56
2022/08/29 08:00:33;;;;;;;;;4.25;4.25;;;;;21.51;42.81;101180.97;5114878;27;45544;-56
2022/08/29 08:02:58;;;;;;;;;2.60;2.60;;;;;21.48;42.54;101169.53;5115905;27;46348;-55
2022/08/29 08:05:24;;;;;;;;;5.20;3.40;;;;;21.41;42.35;101141.88;5093971;27;45456;-53
2022/08/29 08:07:49;;;;;;;;;2.00;2.00;;;;;21.48;42.21;101142.47;5095634;27;45356;-54
2022/08/29 08:10:19;;;;;;;;;2.50;2.50;;;;;21.68;42.57;101163.16;5096389;27;45328;-55
2022/08/29 08:12:45;;;;;;;;;5.20;4.80;;;;;21.82;42.65;101157.06;5102224;27;46095;-53
2022/08/29 08:15:11;;;;;;;;;3.00;3.00;;;;;21.74;42.00;101136.94;5068418;27;45935;-49
2022/08/29 08:17:37;;;;;;;;;3.00;3.00;;;;;21.83;42.02;101155.94;5095744;27;45761;-52
2022/08/29 08:20:05;;;;;;;;;4.00;3.00;;;;;21.82;42.31;101149.50;5096241;27;45685;-52
2022/08/29 08:22:31;;;;;;;;;4.40;2.00;;;;;21.76;42.08;101131.06;5078632;27;46838;-54
2022/08/29 08:24:56;;;;;;;;;3.60;3.60;;;;;21.98;42.01;101157.91;5097254;27;45479;-55
2022/08/29 08:27:22;;;;;;;;;5.00;4.00;;;;;21.79;42.40;101125.75;5096130;27;45691;-53
2022/08/29 08:29:47;;;;;;;;;2.50;2.25;;;;;22.00;41.88;101159.31;5097503;27;45572;-54
2022/08/29 08:32:13;;;;;;;;;4.00;3.00;;;;;21.99;41.67;101154.81;5097222;27;46273;-57
2022/08/29 08:34:38;;;;;;;;;2.75;2.75;;;;;21.97;42.23;101147.84;5097314;27;45312;-55
2022/08/29 08:37:07;;;;;;;;;4.25;3.50;;;;;22.04;41.90;101149.22;5097220;27;45711;-54
2022/08/29 08:39:33;;;;;;;;;4.00;4.00;;;;;22.07;41.80;101142.25;5097585;27;45830;-52
2022/08/29 08:42:28;;;;;;;;;3.75;2.75;;;;;22.15;42.03;101150.03;5079023;27;45350;-55
2022/08/29 08:45:21;;;;;;;;;3.20;3.20;;;;;22.17;42.10;101158.16;5078704;27;45444;-56
2022/08/29 08:48:06;;;;;;;;;5.60;4.20;;;;;22.23;42.50;101158.97;5094064;27;45382;-52
2022/08/29 08:50:44;;;;;;;;;2.20;2.20;;;;;22.29;41.88;101161.50;5055228;27;46460;-50
2022/08/29 08:53:28;;;;;;;;;3.00;3.00;;;;;22.14;41.55;101130.78;5077535;27;45564;-53
2022/08/29 08:55:54;;;;;;;;;5.00;4.00;;;;;22.37;41.68;101153.66;5092567;27;45644;-53
2022/08/29 08:59:04;;;;;;;;;4.00;4.00;;;;;22.36;41.83;101136.03;5099768;27;45755;-53
2022/08/29 09:01:32;;;;;;;;;3.40;3.40;;;;;22.59;41.62;101148.63;5081048;27;45481;-54
2022/08/29 09:04:18;;;;;;;;;2.60;1.80;;;;;22.75;41.22;101157.78;5092800;27;46603;-51
2022/08/29 09:06:52;;;;;;;;;5.20;4.00;;;;;22.79;41.53;101169.25;5078124;27;45426;-52
2022/08/29 09:09:45;;;;;;;;;4.00;4.00;;;;;22.81;40.97;101167.03;5101250;27;45488;-52
2022/08/29 09:12:53;;;;;;;;;2.80;2.80;;;;;22.85;41.30;101164.50;5094691;27;45542;-50
2022/08/29 09:15:22;;;;;;;;;4.20;3.80;;;;;22.86;41.06;101158.63;5063345;27;48725;-50
2022/08/29 09:17:48;;;;;;;;;4.00;3.00;;;;;22.98;40.85;101165.81;5080070;27;45789;-49
2022/08/29 09:20:17;;;;;;;;;5.40;4.00;;;;;23.07;40.69;101152.09;5109488;27;45470;-49
2022/08/29 09:22:44;;;;;;;;;4.40;3.20;;;;;23.15;40.78;101149.53;5109928;27;45658;-52
2022/08/29 09:25:12;;;;;;;;;2.60;2.60;;;;;23.23;40.31;101145.28;5093992;27;45874;-50
2022/08/29 09:27:37;;;;;;;;;5.60;4.60;;;;;23.37;40.62;101148.31;5093854;27;45444;-53
2022/08/29 09:30:14;;;;;;;;;6.00;4.00;;;;;23.46;40.57;101151.34;5093941;27;45328;-54
2022/08/29 09:33:06;;;;;;;;;5.00;4.00;;;;;23.61;40.14;101157.97;5112879;27;45685;-53
2022/08/29 09:35:39;;;;;;;;;3.60;3.60;;;;;23.69;39.69;101148.94;5111237;27;46572;-53
2022/08/29 09:38:22;;;;;;;;;3.60;3.60;;;;;23.61;40.48;101133.59;5110208;27;45387;-56
2022/08/29 09:40:59;;;;;;;;;7.20;5.00;;;;;23.79;40.19;101146.06;5112665;27;45558;-52
2022/08/29 09:43:40;;;;;;;;;4.00;4.00;;;;;23.87;39.56;101147.41;5112749;27;45545;-56
2022/08/29 09:46:24;;;;;;;;;3.40;3.40;;;;;23.93;39.47;101148.19;5108597;27;45630;-53
2022/08/29 09:49:03;;;;;;;;;5.40;3.00;;;;;23.99;40.08;101141.41;5112198;27;45914;-54
2022/08/29 09:51:33;;;;;;;;;4.20;4.20;;;;;24.05;39.70;101145.00;5083274;27;45516;-51
2022/08/29 09:54:27;;;;;;;;;5.00;4.00;;;;;24.05;39.97;101145.00;5088924;27;45734;-54
2022/08/29 09:57:00;;;;;;;;;4.40;4.40;;;;;24.11;39.30;101146.66;5109119;27;46455;-51
2022/08/29 09:59:32;;;;;;;;;4.20;4.00;;;;;24.17;39.48;101144.66;5109538;27;45475;-55
2022/08/29 10:02:20;;;;;;;;;7.40;4.40;;;;;24.22;39.07;101136.19;5110964;27;45458;-51
2022/08/29 10:05:09;;;;;;;;;5.00;3.00;;;;;24.12;38.96;101113.88;5092901;27;45442;-53
2022/08/29 10:07:56;;;;;;;;;5.00;4.00;;;;;24.32;39.46;101138.06;5111194;27;46338;-54
2022/08/29 10:10:26;;;;;;;;;5.80;4.60;;;;;24.22;38.87;101117.41;5109100;27;45657;-53
2022/08/29 10:13:16;;;;;;;;;2.80;2.40;;;;;24.36;39.56;101133.53;5092808;27;45375;-49
2022/08/29 10:15:54;;;;;;;;;6.40;4.00;;;;;24.47;39.40;101149.13;5082599;27;45921;-50
2022/08/29 10:18:41;;;;;;;;;7.00;7.00;;;;;24.55;39.21;101135.59;5087461;27;47020;-53
2022/08/29 10:21:11;;;;;;;;;3.00;3.00;;;;;24.64;39.09;101140.25;5096027;27;45606;-53
2022/08/29 10:23:53;;;;;;;;;6.80;5.80;;;;;24.67;39.46;101129.56;5099143;27;45429;-52
2022/08/29 10:26:40;;;;;;;;;6.40;4.60;;;;;24.77;39.07;101135.06;5055963;27;45445;-52
2022/08/29 10:29:21;;;;;;;;;4.40;4.40;;;;;24.87;38.88;101128.50;5090775;27;45816;-49
2022/08/29 10:32:00;;;;;;;;;8.00;6.40;;;;;24.77;38.31;101102.19;5076487;27;45481;-50
2022/08/29 10:35:00;;;;;;;;;4.80;4.80;;;;;25.03;38.92;101129.16;5077422;27;45850;-55
2022/08/29 10:37:55;;;;;;;;;8.00;6.60;;;;;25.07;38.22;101133.00;5095029;27;45507;-54
2022/08/29 10:40:39;;;;;;;;;5.00;4.00;;;;;25.03;38.51;101117.91;5075925;27;45746;-55
2022/08/29 10:43:13;;;;;;;;;4.00;4.00;;;;;25.11;38.71;101127.63;5060039;27;45454;-53
2022/08/29 10:46:10;;;;;;;;;4.40;4.40;;;;;25.09;38.20;101127.09;5094943;27;45495;-53
2022/08/29 10:48:37;;;;;;;;;6.20;5.20;;;;;25.20;38.55;101122.16;5092643;27;45716;-55
2022/08/29 10:51:12;;;;;;;;;9.20;5.80;;;;;25.27;38.14;101123.47;5084035;27;46542;-52
2022/08/29 10:53:40;;;;;;;;;5.00;4.60;;;;;25.08;38.47;101084.13;5103244;27;45371;-53
2022/08/29 10:56:05;;;;;;;;;5.80;5.80;;;;;25.36;37.89;101112.41;5080070;27;45495;-53
2022/08/29 10:58:57;;;;;;;;;5.00;4.00;;;;;25.39;38.15;101110.97;5115519;27;45536;-55
2022/08/29 11:01:38;;;;;;;;;4.40;4.40;;;;;25.51;38.09;101113.28;5090053;27;46605;-53
2022/08/29 11:04:03;;;;;;;;;4.20;4.00;;;;;25.54;37.98;101119.16;5075547;27;45589;-55
2022/08/29 11:06:40;;;;;;;;;7.50;4.00;;;;;25.63;38.06;101121.28;5094439;27;45432;-56
2022/08/29 11:09:15;;;;;;;;;5.40;5.00;;;;;25.75;37.91;101130.06;5059074;27;45428;-58
2022/08/29 11:12:03;;;;;;;;;7.60;7.60;;;;;25.77;38.07;101105.31;5073751;27;45563;-58
2022/08/29 11:14:36;;;;;;;;;6.40;6.40;;;;;25.90;37.19;101106.50;5078067;27;45395;-56
2022/08/29 11:17:02;;;;;;;;;5.00;5.00;;;;;26.02;37.92;101107.97;5075437;27;45485;-57
2022/08/29 11:19:40;;;;;;;;;6.40;5.60;;;;;26.08;37.46;101099.16;5091854;27;45428;-56
2022/08/29 11:22:14;;;;;;;;;6.80;5.60;;;;;26.21;36.93;101100.31;5060168;27;46192;-59
2022/08/29 11:24:40;;;;;;;;;6.00;6.00;;;;;26.11;37.17;101063.94;5067084;27;45506;-56
2022/08/29 11:27:17;;;;;;;;;5.25;5.25;;;;;26.25;36.89;101080.88;5058938;27;45437;-56
2022/08/29 11:29:57;;;;;;;;;6.20;6.20;;;;;26.40;36.96;101088.16;5075761;27;45480;-57
2022/08/29 11:32:28;;;;;;;;;4.40;3.60;;;;;26.46;36.63;101075.66;5076406;27;45816;-55
2022/08/29 11:35:19;;;;;;;;;10.40;9.40;;;;;26.69;35.91;101089.00;5088481;27;45508;-55